Terminal Aerodrome Forecast
Issued by NWS

Home | Current Version | Previous Version | Text Only | Print | Product List | Glossary On
Versions: 1 2 3 4 5 6 7 8 9 10 11 12 13 14 15 16 17
000
FTUS41 KBOX 261727
TAFBED
TAF
KBED 261727Z 2618/2718 33010G17KT P6SM VCSH SCT020 OVC035
     FM261900 33010KT P6SM VCSH OVC020
     FM262300 34010KT P6SM OVC020
     FM270300 VRB03KT P6SM OVC025
     FM271100 34004KT P6SM BKN015
     FM271600 03006KT P6SM BKN020=

USA.gov is the U.S. government's official web portal to all federal, state and local government web resources and services.